Time;durP1;ratioP1;P1;durP2;ratioP2;P2;SDS_P1;SDS_P2;PMS_P1;PMS_P2;Temp;Humidity;BMP_temperature;BMP_pressure;BME280_temperature;BME280_humidity;BME280_pressure;Samples;Min_cycle;Max_cycle;Signal;HPM_P1;HPM_P2
2022/10/01 00:00:04;;;;;;;10.88;7.53;;;;;;;5.57;100.00;97064.38;5065659;28;20132;-64
2022/10/01 00:02:36;;;;;;;13.75;8.20;;;;;;;5.56;100.00;97068.13;5065591;28;20048;-64
2022/10/01 00:05:05;;;;;;;11.75;7.68;;;;;;;5.58;100.00;97062.53;5066094;28;20076;-64
2022/10/01 00:07:39;;;;;;;10.93;7.80;;;;;;;5.62;100.00;97061.03;5064199;28;20047;-65
2022/10/01 00:10:07;;;;;;;14.65;8.45;;;;;;;5.70;100.00;97051.81;5066212;28;20534;-65
2022/10/01 00:12:33;;;;;;;10.30;7.45;;;;;;;5.76;100.00;97058.16;5077403;28;20498;-65
2022/10/01 00:15:01;;;;;;;12.25;7.57;;;;;;;5.75;100.00;97054.63;5066508;28;20066;-65
2022/10/01 00:17:32;;;;;;;9.23;6.65;;;;;;;5.46;100.00;97059.81;5066394;28;20052;-65
2022/10/01 00:19:59;;;;;;;11.82;7.43;;;;;;;5.34;100.00;97055.19;5064913;28;20037;-65
2022/10/01 00:22:25;;;;;;;11.52;7.82;;;;;;;5.29;100.00;97055.03;5065422;28;20108;-65
2022/10/01 00:24:52;;;;;;;14.60;8.20;;;;;;;5.42;100.00;97058.63;5065375;28;20036;-64
2022/10/01 00:27:18;;;;;;;10.77;7.45;;;;;;;5.52;100.00;97048.13;5066064;28;20475;-65
2022/10/01 00:29:45;;;;;;;12.57;7.57;;;;;;;5.44;100.00;97051.97;5065660;28;20534;-65
2022/10/01 00:32:11;;;;;;;11.30;7.50;;;;;;;5.43;100.00;97046.81;5063776;28;20049;-64
2022/10/01 00:34:38;;;;;;;10.05;6.57;;;;;;;5.43;100.00;97050.34;5065216;28;20048;-65
2022/10/01 00:37:04;;;;;;;11.85;7.15;;;;;;;5.46;100.00;97051.75;5066021;28;20115;-65
2022/10/01 00:39:31;;;;;;;10.98;7.00;;;;;;;5.40;100.00;97058.00;5065676;28;20045;-64
2022/10/01 00:41:57;;;;;;;12.48;6.80;;;;;;;5.36;100.00;97065.69;5071536;28;20130;-64
2022/10/01 00:44:35;;;;;;;12.10;7.68;;;;;;;5.47;100.00;97070.31;5072491;28;20044;-65
2022/10/01 00:47:07;;;;;;;9.45;6.55;;;;;;;5.53;100.00;97075.81;5049569;28;20080;-65
2022/10/01 00:49:36;;;;;;;12.43;6.22;;;;;;;5.62;100.00;97076.31;5063980;28;20064;-66
2022/10/01 00:52:07;;;;;;;10.98;6.43;;;;;;;5.66;100.00;97069.44;5069010;28;20041;-64
2022/10/01 00:54:42;;;;;;;9.60;5.95;;;;;;;5.65;100.00;97070.50;5068112;28;20613;-65
2022/10/01 00:57:10;;;;;;;8.98;5.93;;;;;;;5.70;100.00;97076.00;5068636;28;20110;-64
2022/10/01 00:59:36;;;;;;;8.18;5.68;;;;;;;5.76;100.00;97069.72;5068957;28;20471;-64
2022/10/01 01:02:03;;;;;;;8.45;5.60;;;;;;;5.78;100.00;97067.63;5069253;28;20045;-64
2022/10/01 01:04:31;;;;;;;9.82;5.90;;;;;;;5.87;100.00;97068.13;5068779;28;20047;-65
2022/10/01 01:07:00;;;;;;;8.63;5.88;;;;;;;5.88;100.00;97066.25;5067100;28;20059;-64
2022/10/01 01:09:31;;;;;;;9.63;5.22;;;;;;;5.93;100.00;97059.13;5069453;28;20072;-64
2022/10/01 01:12:23;;;;;;;11.05;5.70;;;;;;;6.04;100.00;97056.75;5074325;28;20067;-64
2022/10/01 01:14:58;;;;;;;;;;;;;;;6.21;100.00;97048.81;5070866;28;20375;-63
2022/10/01 01:17:38;;;;;;;7.38;4.95;;;;;;;6.34;100.00;97051.28;5068500;28;20358;-64
2022/10/01 01:20:25;;;;;;;7.80;5.20;;;;;;;6.39;100.00;97045.22;5068844;28;20054;-65
2022/10/01 01:23:15;;;;;;;8.63;5.60;;;;;;;6.46;100.00;97039.72;5073417;28;20128;-64
2022/10/01 01:26:24;;;;;;;8.15;5.57;;;;;;;6.48;100.00;97043.00;5060729;28;20131;-64
2022/10/01 01:28:58;;;;;;;9.73;5.28;;;;;;;6.56;100.00;97037.25;5039523;28;20144;-65
2022/10/01 01:31:31;;;;;;;8.75;4.95;;;;;;;6.60;100.00;97026.88;5065654;28;20475;-64
2022/10/01 01:33:59;;;;;;;9.10;5.35;;;;;;;6.57;100.00;97017.41;5068045;28;20048;-65
2022/10/01 01:36:31;;;;;;;7.47;5.07;;;;;;;6.55;100.00;97011.44;5068788;28;20036;-65
2022/10/01 01:39:05;;;;;;;7.05;4.80;;;;;;;6.67;100.00;97013.28;5068273;28;20131;-65
2022/10/01 01:41:37;;;;;;;9.90;4.95;;;;;;;6.74;100.00;97006.72;5069133;28;20097;-65
2022/10/01 01:44:08;;;;;;;9.07;4.70;;;;;;;6.87;100.00;97000.28;5072781;28;20045;-65
2022/10/01 01:46:39;;;;;;;7.15;4.95;;;;;;;6.98;100.00;97006.69;5061654;28;20569;-65
2022/10/01 01:49:06;;;;;;;7.72;4.18;;;;;;;7.09;100.00;96996.13;5063354;28;20052;-65
2022/10/01 01:51:40;;;;;;;6.88;4.25;;;;;;;7.11;100.00;96996.72;5068156;28;20037;-64
2022/10/01 01:54:07;;;;;;;7.70;4.30;;;;;;;7.03;100.00;97001.41;5069123;28;20219;-65
2022/10/01 01:56:34;;;;;;;7.80;4.65;;;;;;;7.03;100.00;96977.19;5067047;28;20119;-64
2022/10/01 01:59:02;;;;;;;7.72;4.68;;;;;;;7.01;100.00;96981.97;5067400;28;20054;-65
2022/10/01 02:01:40;;;;;;;7.75;4.80;;;;;;;7.01;100.00;96984.66;5066972;28;20127;-65
2022/10/01 02:04:11;;;;;;;6.53;4.35;;;;;;;7.02;100.00;96980.13;5068044;28;20037;-65
2022/10/01 02:06:41;;;;;;;6.28;4.25;;;;;;;6.94;100.00;96975.09;5064920;28;20147;-64
2022/10/01 02:09:29;;;;;;;6.65;4.15;;;;;;;6.95;100.00;96982.13;5066488;28;20079;-65
2022/10/01 02:12:25;;;;;;;6.70;4.82;;;;;;;6.96;100.00;96984.56;5071366;28;20131;-65
2022/10/01 02:14:57;;;;;;;6.15;4.15;;;;;;;6.98;100.00;96981.66;5067102;28;20055;-64
2022/10/01 02:17:45;;;;;;;6.18;3.75;;;;;;;7.06;100.00;96973.19;5048270;28;20127;-64
2022/10/01 02:20:34;;;;;;;6.95;3.58;;;;;;;7.08;100.00;96976.44;5064165;28;20559;-65
2022/10/01 02:23:33;;;;;;;6.40;3.92;;;;;;;7.04;100.00;96972.59;5067568;28;20071;-65
2022/10/01 02:26:09;;;;;;;5.75;3.55;;;;;;;7.12;100.00;96971.44;5057161;28;20050;-65
2022/10/01 02:28:39;;;;;;;6.95;3.75;;;;;;;7.06;100.00;96973.19;5065574;28;20157;-65
2022/10/01 02:31:08;;;;;;;5.97;3.83;;;;;;;7.11;100.00;96969.78;5066824;28;20423;-65
2022/10/01 02:33:37;;;;;;;6.53;3.55;;;;;;;7.03;100.00;96963.72;5067678;28;20067;-65
2022/10/01 02:36:07;;;;;;;7.30;3.60;;;;;;;7.05;100.00;96963.50;5065757;28;20518;-65
2022/10/01 02:38:37;;;;;;;5.65;3.75;;;;;;;7.06;100.00;96965.13;5067028;28;20566;-65
2022/10/01 02:41:06;;;;;;;6.35;3.65;;;;;;;7.05;100.00;96959.97;5066574;28;20037;-65
2022/10/01 02:43:37;;;;;;;5.57;3.55;;;;;;;7.05;100.00;96957.28;5084713;28;20040;-65
2022/10/01 02:46:47;;;;;;;6.93;3.63;;;;;;;7.08;100.00;96949.53;5058097;28;20049;-64
2022/10/01 02:49:13;;;;;;;6.13;3.33;;;;;;;7.01;100.00;96954.25;5040599;28;20140;-65
2022/10/01 02:52:10;;;;;;;5.85;3.80;;;;;;;6.97;100.00;96945.81;5046486;28;20049;-65
2022/10/01 02:54:46;;;;;;;6.32;3.28;;;;;;;6.96;100.00;96960.34;5067242;28;20119;-65
2022/10/01 02:57:26;;;;;;;5.68;3.60;;;;;;;6.90;100.00;96956.72;5066294;28;20135;-65
2022/10/01 02:59:56;;;;;;;6.57;3.47;;;;;;;6.95;100.00;96961.41;5066474;28;20052;-64
2022/10/01 03:02:26;;;;;;;5.90;3.13;;;;;;;6.94;100.00;96953.56;5070864;28;20239;-65
2022/10/01 03:04:55;;;;;;;5.38;3.38;;;;;;;6.97;100.00;96945.03;5070404;28;20041;-64
2022/10/01 03:07:21;;;;;;;5.43;3.30;;;;;;;6.93;100.00;96947.34;5067161;28;20379;-65
2022/10/01 03:09:48;;;;;;;5.75;3.35;;;;;;;6.98;100.00;96952.03;5066411;28;20144;-65
2022/10/01 03:12:18;;;;;;;5.28;3.00;;;;;;;7.00;100.00;96944.53;5065723;28;20040;-64
2022/10/01 03:14:45;;;;;;;5.72;2.92;;;;;;;7.12;100.00;96947.19;5066248;28;20050;-64
2022/10/01 03:17:13;;;;;;;4.55;2.67;;;;;;;7.18;100.00;96948.13;5066893;28;20480;-64
2022/10/01 03:19:40;;;;;;;5.95;2.60;;;;;;;7.16;100.00;96940.28;5065928;28;20450;-64
2022/10/01 03:22:07;;;;;;;4.30;2.58;;;;;;;7.11;100.00;96930.22;5065519;28;20511;-65
2022/10/01 03:24:34;;;;;;;8.52;2.95;;;;;;;7.13;100.00;96930.81;5066362;28;20395;-65
2022/10/01 03:27:00;;;;;;;4.50;2.67;;;;;;;7.12;100.00;96931.84;5065913;28;20083;-65
2022/10/01 03:29:27;;;;;;;6.78;2.28;;;;;;;7.14;100.00;96924.34;5064730;28;20119;-65
2022/10/01 03:31:54;;;;;;;4.60;2.70;;;;;;;7.17;100.00;96925.75;5066008;28;20040;-64
2022/10/01 03:34:20;;;;;;;4.68;2.53;;;;;;;7.17;100.00;96928.44;5065644;28;20037;-65
2022/10/01 03:36:47;;;;;;;3.90;2.20;;;;;;;7.22;100.00;96927.72;5066255;28;20546;-65
2022/10/01 03:39:14;;;;;;;4.68;2.20;;;;;;;7.23;100.00;96918.59;5066365;28;20583;-65
2022/10/01 03:41:41;;;;;;;4.47;2.35;;;;;;;7.21;100.00;96909.91;5067596;28;20306;-65
2022/10/01 03:44:07;;;;;;;3.80;2.13;;;;;;;7.18;100.00;96905.81;5066208;28;20496;-64
2022/10/01 03:46:34;;;;;;;4.25;2.45;;;;;;;7.18;100.00;96902.34;5065584;28;20063;-65
2022/10/01 03:49:00;;;;;;;4.32;2.10;;;;;;;7.14;100.00;96889.34;5066179;28;20051;-64
2022/10/01 03:51:28;;;;;;;3.72;2.00;;;;;;;7.24;100.00;96887.91;5064126;28;20120;-65
2022/10/01 03:53:55;;;;;;;5.18;2.35;;;;;;;7.35;100.00;96888.88;5066400;28;20040;-65
2022/10/01 03:56:23;;;;;;;3.20;1.88;;;;;;;7.49;99.12;96882.13;5065629;28;20062;-65
2022/10/01 03:58:49;;;;;;;3.63;1.95;;;;;;;7.56;98.59;96879.28;5065571;28;20045;-65
2022/10/01 04:01:16;;;;;;;3.67;1.98;;;;;;;7.62;98.17;96875.59;5065039;28;20123;-65
2022/10/01 04:03:43;;;;;;;3.65;1.95;;;;;;;7.65;98.01;96882.38;5066251;28;20500;-65
2022/10/01 04:06:10;;;;;;;3.80;1.92;;;;;;;7.72;97.78;96882.22;5065637;28;20064;-65
2022/10/01 04:08:37;;;;;;;4.28;1.95;;;;;;;7.70;97.98;96881.66;5066505;28;20051;-64
2022/10/01 04:11:05;;;;;;;4.28;2.13;;;;;;;7.72;97.98;96877.66;5065134;28;20148;-65
2022/10/01 04:13:33;;;;;;;4.30;2.10;;;;;;;7.75;97.50;96874.47;5068239;28;20047;-65
2022/10/01 04:16:04;;;;;;;4.82;2.40;;;;;;;7.75;97.90;96879.03;5058563;28;20147;-64
2022/10/01 04:18:31;;;;;;;3.63;2.10;;;;;;;7.77;97.66;96871.50;5065985;28;20044;-65
2022/10/01 04:20:58;;;;;;;3.40;2.20;;;;;;;7.72;97.46;96876.81;5065593;28;20115;-65
2022/10/01 04:23:24;;;;;;;4.50;1.98;;;;;;;7.85;96.82;96875.69;5067523;28;20166;-65
2022/10/01 04:25:51;;;;;;;3.25;1.88;;;;;;;7.81;97.08;96875.34;5069206;28;20123;-64
2022/10/01 04:28:18;;;;;;;3.65;1.98;;;;;;;7.85;96.92;96881.06;5069922;28;20048;-65
2022/10/01 04:30:45;;;;;;;3.40;1.90;;;;;;;7.81;96.84;96869.94;5069599;28;20123;-64
2022/10/01 04:33:14;;;;;;;4.25;2.00;;;;;;;7.73;97.23;96868.50;5069939;28;20407;-64
2022/10/01 04:35:42;;;;;;;5.90;2.20;;;;;;;7.73;97.66;96863.09;5063559;28;20500;-65
2022/10/01 04:38:15;;;;;;;5.90;2.05;;;;;;;7.84;96.90;96869.47;5069589;28;20127;-65
2022/10/01 04:40:42;;;;;;;5.05;2.08;;;;;;;7.80;97.37;96871.84;5069390;28;20103;-64
2022/10/01 04:43:11;;;;;;;3.55;2.10;;;;;;;7.75;97.60;96876.34;5068634;28;20051;-65
2022/10/01 04:45:38;;;;;;;2.75;1.73;;;;;;;7.80;96.98;96871.03;5070204;28;20040;-64
2022/10/01 04:48:04;;;;;;;3.92;1.63;;;;;;;7.79;96.95;96869.41;5069732;28;20519;-65
2022/10/01 04:50:31;;;;;;;3.20;1.77;;;;;;;7.80;96.87;96877.25;5069055;28;20083;-65
2022/10/01 04:52:57;;;;;;;2.72;1.75;;;;;;;7.90;95.90;96871.19;5069070;28;20579;-65
2022/10/01 04:55:24;;;;;;;3.05;2.08;;;;;;;7.92;95.75;96868.22;5068973;28;20124;-64
2022/10/01 04:57:50;;;;;;;3.88;2.00;;;;;;;7.89;96.53;96877.63;5069923;28;20045;-65
2022/10/01 05:00:20;;;;;;;4.35;2.13;;;;;;;7.94;95.79;96866.94;5068866;28;20041;-65
2022/10/01 05:02:48;;;;;;;3.45;1.70;;;;;;;7.92;96.19;96866.34;5068544;28;20048;-65
2022/10/01 05:05:17;;;;;;;3.10;1.60;;;;;;;7.94;95.61;96866.09;5068896;28;20124;-65
2022/10/01 05:07:44;;;;;;;2.95;1.85;;;;;;;8.00;95.04;96867.00;5068354;28;20047;-64
2022/10/01 05:10:16;;;;;;;4.88;2.08;;;;;;;8.14;94.11;96862.09;5068772;28;20470;-65
2022/10/01 05:12:44;;;;;;;2.95;1.25;;;;;;;8.25;92.46;96860.34;5072596;28;20372;-65
2022/10/01 05:15:11;;;;;;;4.90;1.65;;;;;;;8.32;91.43;96861.78;5067403;28;20539;-66
2022/10/01 05:17:37;;;;;;;2.40;1.48;;;;;;;8.42;91.00;96860.28;5066009;28;20051;-66
2022/10/01 05:20:06;;;;;;;2.20;1.38;;;;;;;8.43;91.11;96857.31;5066978;28;20041;-65
2022/10/01 05:22:33;;;;;;;5.22;1.33;;;;;;;8.48;90.69;96861.16;5067038;28;20115;-65
2022/10/01 05:24:59;;;;;;;2.60;1.50;;;;;;;8.62;89.07;96848.13;5063378;28;20044;-65
2022/10/01 05:27:26;;;;;;;3.08;1.33;;;;;;;8.68;88.60;96839.00;5066603;28;20072;-65
2022/10/01 05:29:53;;;;;;;2.72;1.48;;;;;;;8.69;88.43;96833.38;5061324;28;20136;-65
2022/10/01 05:32:19;;;;;;;2.17;1.13;;;;;;;8.66;88.95;96831.16;5066891;28;20071;-65
2022/10/01 05:34:46;;;;;;;3.38;1.50;;;;;;;8.78;88.61;96836.44;5064193;28;20046;-65
2022/10/01 05:37:18;;;;;;;3.05;1.38;;;;;;;8.74;88.88;96837.19;5067543;28;20048;-65
2022/10/01 05:39:45;;;;;;;2.90;1.40;;;;;;;8.74;89.33;96834.50;5066927;28;20078;-63
2022/10/01 05:42:11;;;;;;;3.58;1.60;;;;;;;8.78;89.40;96830.22;5063981;28;20044;-65
2022/10/01 05:44:39;;;;;;;2.95;1.40;;;;;;;8.81;89.02;96835.13;5072427;28;20064;-65
2022/10/01 05:47:06;;;;;;;4.60;1.58;;;;;;;8.80;88.97;96826.19;5062459;28;20149;-65
2022/10/01 05:49:32;;;;;;;3.60;1.23;;;;;;;8.78;89.66;96822.13;5067361;28;20054;-65
2022/10/01 05:51:59;;;;;;;3.38;1.70;;;;;;;8.70;90.82;96816.09;5065717;28;20572;-65
2022/10/01 05:54:28;;;;;;;4.35;1.63;;;;;;;8.68;91.69;96804.75;5078715;28;20103;-65
2022/10/01 05:56:55;;;;;;;5.07;1.83;;;;;;;8.60;92.56;96799.81;5067097;28;20484;-65
2022/10/01 05:59:22;;;;;;;2.53;1.50;;;;;;;8.56;93.06;96798.69;5065664;28;20506;-65
2022/10/01 06:01:52;;;;;;;3.47;2.25;;;;;;;8.64;94.29;96794.72;5066918;28;20032;-65
2022/10/01 06:04:19;;;;;;;4.40;1.50;;;;;;;8.58;93.71;96794.66;5066908;28;20067;-65
2022/10/01 06:06:45;;;;;;;4.93;1.80;;;;;;;8.51;93.89;96791.31;5065236;28;20040;-65
2022/10/01 06:09:12;;;;;;;5.43;1.70;;;;;;;8.47;95.10;96787.47;5066643;28;20068;-64
2022/10/01 06:11:39;;;;;;;3.53;2.00;;;;;;;8.46;96.61;96784.00;5068075;28;20101;-65
2022/10/01 06:14:06;;;;;;;4.70;1.80;;;;;;;8.35;97.57;96776.00;5064683;28;20119;-64
2022/10/01 06:16:32;;;;;;;2.83;1.60;;;;;;;8.33;98.38;96771.69;5040219;28;1081371;-65
2022/10/01 06:18:59;;;;;;;3.45;1.80;;;;;;;8.34;99.92;96775.22;5065895;28;20082;-65
2022/10/01 06:21:26;;;;;;;4.60;1.58;;;;;;;8.36;99.19;96781.16;5070237;28;20481;-65
2022/10/01 06:23:53;;;;;;;3.80;1.75;;;;;;;8.39;99.68;96771.75;5069666;28;20488;-64
2022/10/01 06:26:20;;;;;;;3.95;1.50;;;;;;;8.42;99.02;96777.47;5065722;28;20044;-63
2022/10/01 06:28:51;;;;;;;3.65;1.60;;;;;;;8.39;98.19;96767.16;5064716;28;20155;-64
2022/10/01 06:31:18;;;;;;;3.67;1.80;;;;;;;8.45;98.31;96768.03;5065446;28;20128;-64
2022/10/01 06:33:45;;;;;;;2.90;1.60;;;;;;;8.46;97.92;96775.91;5064643;28;20051;-63
2022/10/01 06:36:11;;;;;;;5.88;2.10;;;;;;;8.52;96.83;96786.72;5064199;28;20342;-64
2022/10/01 06:38:38;;;;;;;3.45;1.55;;;;;;;8.59;97.28;96790.09;5066745;28;20482;-63
2022/10/01 06:41:04;;;;;;;2.60;1.42;;;;;;;8.62;94.93;96776.06;5065598;28;20036;-64
2022/10/01 06:43:32;;;;;;;3.17;1.60;;;;;;;8.63;95.49;96780.41;5068509;28;20523;-64
2022/10/01 06:46:02;;;;;;;2.97;1.48;;;;;;;8.73;92.56;96782.38;5066218;28;20058;-63
2022/10/01 06:48:30;;;;;;;2.65;1.23;;;;;;;8.79;93.17;96785.97;5066528;28;20052;-64
2022/10/01 06:50:57;;;;;;;3.33;1.50;;;;;;;8.77;93.48;96794.31;5066526;28;20152;-65
2022/10/01 06:53:26;;;;;;;3.67;1.45;;;;;;;8.77;93.04;96790.81;5076378;28;20119;-64
2022/10/01 06:55:53;;;;;;;4.32;1.58;;;;;;;8.85;91.46;96787.66;5086707;28;20054;-64
2022/10/01 06:58:21;;;;;;;2.55;1.10;;;;;;;8.79;91.32;96799.44;5071990;28;20049;-64
2022/10/01 07:00:49;;;;;;;2.40;1.30;;;;;;;8.91;89.20;96789.31;5070176;28;20040;-63
2022/10/01 07:03:20;;;;;;;2.58;1.08;;;;;;;8.92;91.74;96787.44;5066399;28;20500;-63
2022/10/01 07:05:48;;;;;;;1.20;0.90;;;;;;;8.77;92.94;96783.50;5066246;28;20124;-64
2022/10/01 07:08:15;;;;;;;3.63;1.10;;;;;;;8.82;91.91;96777.34;5070791;28;20068;-65
2022/10/01 07:10:43;;;;;;;2.58;1.20;;;;;;;8.85;91.87;96776.84;5065881;28;20174;-64
2022/10/01 07:13:19;;;;;;;2.03;1.17;;;;;;;8.93;91.50;96767.47;5068834;28;20041;-64
2022/10/01 07:15:46;;;;;;;4.05;1.30;;;;;;;8.92;92.74;96763.94;5065265;28;20551;-64
2022/10/01 07:18:12;;;;;;;3.78;1.23;;;;;;;8.85;93.41;96764.16;5065786;28;20416;-64
2022/10/01 07:20:40;;;;;;;3.22;1.20;;;;;;;8.89;93.15;96752.84;5065021;28;20115;-64
2022/10/01 07:23:10;;;;;;;3.38;1.20;;;;;;;8.76;94.54;96754.06;5066060;28;20043;-64
2022/10/01 07:25:38;;;;;;;2.70;1.25;;;;;;;8.79;94.78;96746.28;5066529;28;20163;-64
2022/10/01 07:28:07;;;;;;;2.38;1.10;;;;;;;8.87;94.81;96739.59;5066697;28;20561;-64
2022/10/01 07:30:34;;;;;;;3.33;1.00;;;;;;;8.93;93.79;96744.00;5066150;28;20032;-64
2022/10/01 07:33:00;;;;;;;4.88;2.22;;;;;;;8.91;94.88;96756.09;5066612;28;20111;-64
2022/10/01 07:35:28;;;;;;;1.77;0.90;;;;;;;9.05;93.52;96748.38;5065943;28;20058;-63
2022/10/01 07:37:54;;;;;;;3.90;1.10;;;;;;;9.03;94.31;96753.25;5064099;28;20565;-65
2022/10/01 07:40:21;;;;;;;2.30;1.10;;;;;;;9.16;92.68;96754.69;5065695;28;20045;-64
2022/10/01 07:42:55;;;;;;;4.88;1.70;;;;;;;9.21;93.95;96758.25;5069335;28;20468;-65
2022/10/01 07:45:23;;;;;;;1.77;1.10;;;;;;;9.24;93.17;96768.53;5066155;28;20123;-64
2022/10/01 07:47:54;;;;;;;2.35;1.10;;;;;;;9.19;94.30;96762.28;5065719;28;20589;-65
2022/10/01 07:50:21;;;;;;;4.72;1.63;;;;;;;9.19;94.61;96779.31;5065585;28;20044;-64
2022/10/01 07:52:52;;;;;;;2.65;1.60;;;;;;;9.15;95.47;96772.78;5070912;28;20043;-65
2022/10/01 07:55:20;;;;;;;5.20;1.33;;;;;;;9.13;96.53;96769.53;5086146;28;20083;-64
2022/10/01 07:57:54;;;;;;;1.98;1.00;;;;;;;9.24;95.84;96765.84;5077984;28;20131;-64
2022/10/01 08:00:22;;;;;;;3.60;1.13;;;;;;;9.31;95.37;96762.09;5064706;28;20119;-64
2022/10/01 08:02:50;;;;;;;1.75;0.98;;;;;;;9.25;96.20;96761.22;5065503;28;20037;-64
2022/10/01 08:05:19;;;;;;;2.13;1.00;;;;;;;9.29;95.81;96762.34;5065931;28;20046;-65
2022/10/01 08:07:46;;;;;;;2.13;1.00;;;;;;;9.28;96.58;96763.44;5065337;28;20503;-64
2022/10/01 08:10:14;;;;;;;2.40;0.95;;;;;;;9.26;96.07;96757.47;5065765;28;20047;-64
2022/10/01 08:12:43;;;;;;;1.98;1.10;;;;;;;9.29;96.67;96777.75;5069471;28;20078;-64
2022/10/01 08:15:11;;;;;;;3.22;0.95;;;;;;;9.37;96.20;96785.38;5065905;28;20064;-64
2022/10/01 08:17:38;;;;;;;1.65;0.90;;;;;;;9.24;96.69;96789.31;5065564;28;20535;-65
2022/10/01 08:20:06;;;;;;;2.25;0.98;;;;;;;9.21;97.37;96790.66;5065101;28;20115;-65
2022/10/01 08:22:33;;;;;;;1.98;0.80;;;;;;;9.16;98.74;96779.81;5065116;28;20491;-65
2022/10/01 08:25:05;;;;;;;2.10;1.05;;;;;;;9.03;100.00;96791.06;5065237;28;20040;-64
2022/10/01 08:27:32;;;;;;;2.13;1.25;;;;;;;9.11;100.00;96796.00;5062006;28;20752;-65
2022/10/01 08:29:58;;;;;;;2.92;1.40;;;;;;;9.12;100.00;96797.59;5064833;28;20135;-64
2022/10/01 08:32:26;;;;;;;1.75;0.90;;;;;;;9.05;100.00;96788.91;5064070;28;20036;-65
2022/10/01 08:34:58;;;;;;;2.13;1.08;;;;;;;9.06;100.00;96788.63;5065439;28;20128;-65
2022/10/01 08:37:27;;;;;;;3.35;1.20;;;;;;;9.04;100.00;96800.78;5064602;28;20060;-65
2022/10/01 08:39:55;;;;;;;1.83;0.95;;;;;;;8.97;100.00;96809.09;5065151;28;20080;-65
2022/10/01 08:42:52;;;;;;;3.17;1.50;;;;;;;9.04;100.00;96814.28;5069717;28;20375;-65
2022/10/01 08:45:25;;;;;;;2.75;1.40;;;;;;;9.16;100.00;96820.34;5053312;28;20132;-65
2022/10/01 08:48:02;;;;;;;2.03;1.23;;;;;;;9.06;100.00;96821.06;5066317;28;20543;-65
2022/10/01 08:50:52;;;;;;;2.80;1.35;;;;;;;9.05;100.00;96824.00;5064616;28;20076;-65
2022/10/01 08:53:30;;;;;;;4.47;1.30;;;;;;;9.17;100.00;96829.22;5074724;28;20424;-65
2022/10/01 08:55:59;;;;;;;2.45;1.15;;;;;;;9.19;100.00;96817.13;5085967;28;20450;-65
2022/10/01 08:58:33;;;;;;;1.85;1.05;;;;;;;9.33;100.00;96825.59;5074230;28;20731;-64
2022/10/01 09:01:00;;;;;;;2.40;1.27;;;;;;;9.26;100.00;96819.63;5064643;28;20055;-64
2022/10/01 09:03:30;;;;;;;2.40;1.30;;;;;;;9.31;100.00;96825.06;5065066;28;20072;-64
2022/10/01 09:06:15;;;;;;;2.65;1.33;;;;;;;9.43;100.00;96827.56;5064567;28;20185;-64
2022/10/01 09:09:04;;;;;;;2.60;0.98;;;;;;;9.57;100.00;96827.13;5065030;28;20048;-64
2022/10/01 09:11:37;;;;;;;2.28;0.95;;;;;;;9.55;100.00;96823.88;5070126;28;20052;-65
2022/10/01 09:14:18;;;;;;;3.05;0.80;;;;;;;9.54;100.00;96814.97;5068322;28;20040;-65
2022/10/01 09:17:05;;;;;;;4.45;2.10;;;;;;;9.51;100.00;96818.16;5068029;28;20415;-65
2022/10/01 09:19:39;;;;;;;3.00;1.30;;;;;;;9.53;100.00;96810.63;5066749;28;20064;-65
2022/10/01 09:22:39;;;;;;;2.38;1.33;;;;;;;9.62;100.00;96813.69;5060027;28;20542;-65
2022/10/01 09:25:08;;;;;;;3.03;0.90;;;;;;;9.60;100.00;96813.13;5070994;28;20127;-64
2022/10/01 09:27:37;;;;;;;2.30;1.20;;;;;;;9.57;100.00;96808.22;5061911;28;20059;-65
2022/10/01 09:30:17;;;;;;;1.90;0.98;;;;;;;9.59;100.00;96822.31;5065039;28;20500;-65
2022/10/01 09:32:54;;;;;;;1.85;0.85;;;;;;;9.66;100.00;96822.06;5062469;28;20064;-65
2022/10/01 09:35:45;;;;;;;2.55;1.30;;;;;;;9.73;100.00;96828.09;5064828;28;20040;-65
2022/10/01 09:38:27;;;;;;;1.80;0.90;;;;;;;9.83;100.00;96822.72;5065419;28;20068;-64
2022/10/01 09:40:58;;;;;;;2.17;0.95;;;;;;;9.91;100.00;96826.81;5064604;28;20580;-63
2022/10/01 09:43:30;;;;;;;0.95;0.50;;;;;;;9.88;100.00;96832.78;5063632;28;20041;-64
2022/10/01 09:45:57;;;;;;;1.35;0.60;;;;;;;10.01;100.00;96837.72;5065042;28;20873;-66
2022/10/01 09:48:46;;;;;;;2.05;1.05;;;;;;;10.02;100.00;96843.94;5065634;28;20410;-65
2022/10/01 09:51:17;;;;;;;1.38;0.65;;;;;;;9.95;100.00;96838.75;5063149;28;20664;-65
2022/10/01 09:54:02;;;;;;;1.65;0.77;;;;;;;10.07;100.00;96845.84;5069404;28;20135;-65
2022/10/01 09:56:36;;;;;;;1.92;0.60;;;;;;;10.21;100.00;96840.81;5065251;28;20106;-65
2022/10/01 09:59:09;;;;;;;0.70;0.43;;;;;;;10.27;100.00;96834.31;5074488;28;20136;-65
2022/10/01 10:02:13;;;;;;;2.35;0.60;;;;;;;10.18;100.00;96828.63;5054273;28;20056;-65
2022/10/01 10:04:40;;;;;;;2.03;0.75;;;;;;;10.02;100.00;96822.28;5058843;28;20064;-65
2022/10/01 10:07:15;;;;;;;1.65;0.73;;;;;;;10.13;100.00;96826.69;5066170;28;20561;-65
2022/10/01 10:09:42;;;;;;;4.00;1.60;;;;;;;10.27;100.00;96831.63;5062182;28;20057;-65
2022/10/01 10:12:25;;;;;;;4.00;1.25;;;;;;;10.39;100.00;96834.94;5070400;28;20052;-65
2022/10/01 10:14:54;;;;;;;12.65;4.55;;;;;;;10.43;100.00;96818.97;5064526;28;20102;-65
2022/10/01 10:17:21;;;;;;;4.88;2.03;;;;;;;10.42;100.00;96825.47;5063513;28;20098;-65
2022/10/01 10:19:51;;;;;;;4.82;2.42;;;;;;;10.30;100.00;96830.28;5064612;28;20048;-65
2022/10/01 10:22:23;;;;;;;15.38;7.63;;;;;;;10.36;100.00;96821.91;5060748;28;20465;-64
2022/10/01 10:24:52;;;;;;;5.20;2.65;;;;;;;10.40;100.00;96814.91;5064578;28;20045;-65
2022/10/01 10:27:29;;;;;;;2.03;0.70;;;;;;;10.53;100.00;96819.06;5063780;28;20127;-65
2022/10/01 10:30:12;;;;;;;2.72;0.77;;;;;;;10.68;100.00;96822.09;5062705;28;20500;-65
2022/10/01 10:32:40;;;;;;;1.27;0.70;;;;;;;10.72;100.00;96829.38;5063655;28;20036;-66
2022/10/01 10:35:21;;;;;;;1.85;1.00;;;;;;;10.78;100.00;96836.47;5064859;28;20056;-65
2022/10/01 10:37:51;;;;;;;2.88;1.35;;;;;;;10.70;100.00;96836.16;5065712;28;20068;-65
2022/10/01 10:40:38;;;;;;;1.13;0.52;;;;;;;10.72;100.00;96844.84;5064415;28;20044;-65
2022/10/01 10:43:05;;;;;;;0.98;0.50;;;;;;;10.84;99.37;96837.25;5067369;28;20120;-65
2022/10/01 10:45:37;;;;;;;1.40;0.50;;;;;;;10.79;100.00;96829.13;5064644;28;20040;-65
2022/10/01 10:48:10;;;;;;;0.75;0.50;;;;;;;10.89;100.00;96828.34;5065002;28;20058;-65
2022/10/01 10:50:39;;;;;;;0.75;0.57;;;;;;;11.07;100.00;96818.91;5065101;28;20051;-65
2022/10/01 10:53:24;;;;;;;0.50;0.35;;;;;;;11.27;100.00;96811.88;5063003;28;20152;-62
2022/10/01 10:56:05;;;;;;;0.35;0.35;;;;;;;11.47;100.00;96804.84;5063822;28;20059;-63
2022/10/01 10:58:38;;;;;;;1.65;0.85;;;;;;;11.57;98.70;96816.50;5061774;28;20731;-63
2022/10/01 11:01:10;;;;;;;1.00;0.45;;;;;;;11.64;98.81;96810.78;5063049;28;20068;-63
2022/10/01 11:03:45;;;;;;;1.50;0.70;;;;;;;11.55;97.48;96815.13;5058908;28;20043;-63
2022/10/01 11:06:14;;;;;;;1.40;0.70;;;;;;;11.53;98.44;96825.41;5063735;28;20055;-62
2022/10/01 11:08:42;;;;;;;1.13;0.57;;;;;;;11.57;96.51;96811.06;5064903;28;20089;-62
2022/10/01 11:11:21;;;;;;;0.95;0.57;;;;;;;11.45;97.51;96819.47;5063387;28;20048;-62
2022/10/01 11:14:34;;;;;;;1.65;0.68;;;;;;;11.27;99.73;96818.13;5055352;28;20047;-62
2022/10/01 11:17:16;;;;;;;1.00;0.60;;;;;;;11.24;99.28;96804.31;5032820;28;20060;-62
2022/10/01 11:19:59;;;;;;;1.88;0.60;;;;;;;11.15;99.64;96817.56;5064376;28;20084;-61
2022/10/01 11:22:26;;;;;;;0.50;0.38;;;;;;;11.19;100.00;96815.94;5045756;28;20151;-63
2022/10/01 11:24:59;;;;;;;1.30;0.70;;;;;;;11.24;99.57;96823.28;5068080;28;20502;-62
2022/10/01 11:27:41;;;;;;;0.73;0.47;;;;;;;11.18;99.38;96825.16;5064349;28;20098;-62
2022/10/01 11:30:17;;;;;;;1.00;0.50;;;;;;;11.17;99.84;96823.53;5063922;28;20523;-65
2022/10/01 11:32:48;;;;;;;1.23;0.70;;;;;;;11.16;99.50;96825.41;5061165;28;20124;-62
2022/10/01 11:35:33;;;;;;;1.00;0.40;;;;;;;11.09;99.69;96826.78;5023657;28;20830;-61
2022/10/01 11:38:23;;;;;;;1.17;0.60;;;;;;;10.96;100.00;96838.94;5023652;28;20053;-67
2022/10/01 11:41:02;;;;;;;1.52;0.77;;;;;;;11.00;100.00;96834.59;5019383;28;20490;-63
2022/10/01 11:43:38;;;;;;;3.78;0.85;;;;;;;11.10;99.39;96837.34;5023432;28;20128;-65
2022/10/01 11:46:13;;;;;;;0.38;0.32;;;;;;;11.04;100.00;96841.13;5024515;28;20059;-63
2022/10/01 11:48:45;;;;;;;0.98;0.50;;;;;;;11.00;100.00;96840.84;5022996;28;20041;-64
2022/10/01 11:51:21;;;;;;;1.05;0.60;;;;;;;11.03;99.43;96848.41;5023897;28;20041;-64
2022/10/01 11:53:52;;;;;;;0.68;0.47;;;;;;;11.03;100.00;96850.31;5023309;28;20176;-64